Time;durP1;ratioP1;P1;durP2;ratioP2;P2;SDS_P1;SDS_P2;PMS_P1;PMS_P2;Temp;Humidity;BMP_temperature;BMP_pressure;BME280_temperature;BME280_humidity;BME280_pressure;Samples;Min_cycle;Max_cycle;Signal;HPM_P1;HPM_P2
2023/06/18 00:01:17;;;;;;;16.90;12.00;;;;;;;;;;107085;1251;61301;-79
2023/06/18 00:03:56;;;;;;;15.20;11.50;;;;;;;;;;107039;1250;59441;-81
2023/06/18 00:06:23;;;;;;;15.20;11.70;;;;;;;;;;107053;1250;61258;-79
2023/06/18 00:08:49;;;;;;;16.30;12.00;;;;;;;;;;107039;1251;61077;-79
2023/06/18 00:11:16;;;;;;;18.00;11.70;;;;;;;;;;107060;1250;62242;-81
2023/06/18 00:13:42;;;;;;;13.80;10.80;;;;;;;;;;107047;1254;61266;-79
2023/06/18 00:16:09;;;;;;;17.80;11.50;;;;;;;;;;106535;1251;61396;-78
2023/06/18 00:18:35;;;;;;;15.60;12.10;;;;;;;;;;106460;1250;61326;-80
2023/06/18 00:21:07;;;;;;;17.20;11.40;;;;;;;;;;106516;1250;61336;-80
2023/06/18 00:23:34;;;;;;;14.10;11.20;;;;;;;;;;106410;1253;61251;-78
2023/06/18 00:26:00;;;;;;;17.70;11.50;;;;;;;;;;106290;1252;61235;-78
2023/06/18 00:28:28;;;;;;;15.70;11.60;;;;;;;;;;106423;1256;61341;-81
2023/06/18 00:30:55;;;;;;;13.40;11.10;;;;;;;;;;106506;1254;61578;-82
2023/06/18 00:33:22;;;;;;;14.30;11.80;;;;;;;;;;106981;1253;61242;-82
2023/06/18 00:35:48;;;;;;;16.00;11.50;;;;;;;;;;106979;1253;61234;-80
2023/06/18 00:38:16;;;;;;;16.80;11.50;;;;;;;;;;106985;1253;61285;-81
2023/06/18 00:40:43;;;;;;;17.90;11.00;;;;;;;;;;106972;1252;61272;-82
2023/06/18 00:43:09;;;;;;;16.60;11.10;;;;;;;;;;106999;1256;61315;-81
2023/06/18 00:45:37;;;;;;;15.40;11.10;;;;;;;;;;107016;1254;61098;-80
2023/06/18 00:48:03;;;;;;;15.30;11.10;;;;;;;;;;107000;1251;61343;-81
2023/06/18 00:50:32;;;;;;;15.10;11.00;;;;;;;;;;107166;1251;61353;-80
2023/06/18 00:53:01;;;;;;;15.80;11.00;;;;;;;;;;107137;1250;61237;-79
2023/06/18 00:55:28;;;;;;;15.80;12.10;;;;;;;;;;107057;1251;62444;-80
2023/06/18 00:57:59;;;;;;;14.30;11.40;;;;;;;;;;107074;1254;60244;-80
2023/06/18 01:00:28;;;;;;;18.50;11.30;;;;;;;;;;107173;1251;61243;-82
2023/06/18 01:02:55;;;;;;;15.40;11.20;;;;;;;;;;107144;1254;62237;-80
2023/06/18 01:05:23;;;;;;;17.60;11.70;;;;;;;;;;107166;1251;61214;-78
2023/06/18 01:07:49;;;;;;;17.60;10.60;;;;;;;;;;107317;1250;61993;-81
2023/06/18 01:10:16;;;;;;;14.20;10.50;;;;;;;;;;106538;1254;61141;-81
2023/06/18 01:12:46;;;;;;;16.60;10.30;;;;;;;;;;106599;1250;61308;-81
2023/06/18 01:15:12;;;;;;;15.50;11.00;;;;;;;;;;106512;1251;61255;-78
2023/06/18 01:17:39;;;;;;;14.30;11.20;;;;;;;;;;106519;1250;61099;-81
2023/06/18 01:20:10;;;;;;;16.30;11.90;;;;;;;;;;106524;1251;61846;-79
2023/06/18 01:22:52;;;;;;;17.50;11.30;;;;;;;;;;106434;1252;61213;-79
2023/06/18 01:25:18;;;;;;;16.10;11.10;;;;;;;;;;106474;1255;61120;-79
2023/06/18 01:27:46;;;;;;;13.90;10.80;;;;;;;;;;106443;1255;61238;-79
2023/06/18 01:30:13;;;;;;;14.10;11.20;;;;;;;;;;107014;1253;61100;-81
2023/06/18 01:32:39;;;;;;;15.80;10.60;;;;;;;;;;106463;1255;61606;-80
2023/06/18 01:35:06;;;;;;;15.50;11.60;;;;;;;;;;106462;1253;61334;-80
2023/06/18 01:37:33;;;;;;;13.60;11.50;;;;;;;;;;106471;1253;61286;-79
2023/06/18 01:40:06;;;;;;;14.50;12.00;;;;;;;;;;106465;1255;61171;-80
2023/06/18 01:42:33;;;;;;;19.50;11.30;;;;;;;;;;107117;1251;62300;-82
2023/06/18 01:45:02;;;;;;;16.10;12.10;;;;;;;;;;107162;1253;62823;-79
2023/06/18 01:47:29;;;;;;;14.90;10.90;;;;;;;;;;107063;1255;61888;-79
2023/06/18 01:49:55;;;;;;;14.50;10.50;;;;;;;;;;107104;1251;61266;-79
2023/06/18 01:52:23;;;;;;;15.40;11.10;;;;;;;;;;107133;1250;61341;-79
2023/06/18 01:54:49;;;;;;;11.60;10.40;;;;;;;;;;107129;1250;61165;-79
2023/06/18 01:57:16;;;;;;;15.70;10.80;;;;;;;;;;107119;1250;61295;-80
2023/06/18 01:59:43;;;;;;;13.50;10.40;;;;;;;;;;107106;1254;59187;-81
2023/06/18 02:02:10;;;;;;;14.40;11.00;;;;;;;;;;107082;1250;61218;-81
2023/06/18 02:04:37;;;;;;;18.30;12.00;;;;;;;;;;107173;1251;61146;-80
2023/06/18 02:07:03;;;;;;;15.40;11.30;;;;;;;;;;108130;1250;59814;-81
2023/06/18 02:09:30;;;;;;;16.00;10.60;;;;;;;;;;107082;1250;60401;-81
2023/06/18 02:11:56;;;;;;;14.00;10.00;;;;;;;;;;107180;1250;61250;-82
2023/06/18 02:14:22;;;;;;;14.00;10.70;;;;;;;;;;107105;1252;61336;-80
2023/06/18 02:16:50;;;;;;;14.40;9.80;;;;;;;;;;107095;1251;60108;-81
2023/06/18 02:19:16;;;;;;;12.20;9.90;;;;;;;;;;107116;1252;61103;-81
2023/06/18 02:21:43;;;;;;;14.20;10.10;;;;;;;;;;106893;1256;61219;-79
2023/06/18 02:24:10;;;;;;;15.60;11.80;;;;;;;;;;106994;1253;62165;-79
2023/06/18 02:26:36;;;;;;;14.20;10.60;;;;;;;;;;107913;1252;61334;-79
2023/06/18 02:29:03;;;;;;;12.40;10.30;;;;;;;;;;107835;1252;61293;-79
2023/06/18 02:31:29;;;;;;;14.80;10.20;;;;;;;;;;106855;1252;61230;-79
2023/06/18 02:33:56;;;;;;;14.50;10.50;;;;;;;;;;107029;1253;61328;-79
2023/06/18 02:36:22;;;;;;;13.80;10.10;;;;;;;;;;107009;1252;61259;-81
2023/06/18 02:38:51;;;;;;;13.50;10.80;;;;;;;;;;107029;1253;61257;-81
2023/06/18 02:41:21;;;;;;;15.80;10.90;;;;;;;;;;106975;1255;61238;-79
2023/06/18 02:43:49;;;;;;;14.40;11.30;;;;;;;;;;106987;1255;61243;-79
2023/06/18 02:46:16;;;;;;;15.30;11.00;;;;;;;;;;106985;1253;62865;-81
2023/06/18 02:48:42;;;;;;;15.60;10.30;;;;;;;;;;106537;1251;62255;-81
2023/06/18 02:51:09;;;;;;;14.80;11.60;;;;;;;;;;106514;1254;61195;-81
2023/06/18 02:53:36;;;;;;;14.20;10.90;;;;;;;;;;106456;1251;61189;-81
2023/06/18 02:56:03;;;;;;;15.40;10.10;;;;;;;;;;106503;1251;61365;-79
2023/06/18 02:58:29;;;;;;;11.70;9.50;;;;;;;;;;107761;1250;62342;-79
2023/06/18 03:01:04;;;;;;;11.80;9.70;;;;;;;;;;107099;1250;61374;-80
2023/06/18 03:03:31;;;;;;;13.30;9.60;;;;;;;;;;107102;1254;59758;-79
2023/06/18 03:05:58;;;;;;;15.50;10.90;;;;;;;;;;107022;1251;61246;-79
2023/06/18 03:08:25;;;;;;;15.10;11.80;;;;;;;;;;107147;1250;60801;-79
2023/06/18 03:10:51;;;;;;;15.00;11.00;;;;;;;;;;107066;1250;61886;-81
2023/06/18 03:13:17;;;;;;;13.40;10.20;;;;;;;;;;107115;1254;61675;-80
2023/06/18 03:15:44;;;;;;;12.70;11.00;;;;;;;;;;107047;1254;61680;-79
2023/06/18 03:18:10;;;;;;;15.40;11.10;;;;;;;;;;107119;1254;61196;-79
2023/06/18 03:20:37;;;;;;;12.30;10.50;;;;;;;;;;107049;1251;61330;-81
2023/06/18 03:23:03;;;;;;;15.10;10.10;;;;;;;;;;107039;1254;61360;-79
2023/06/18 03:25:30;;;;;;;13.40;9.50;;;;;;;;;;107005;1255;61360;-81
2023/06/18 03:27:56;;;;;;;16.60;9.90;;;;;;;;;;106960;1255;61357;-81
2023/06/18 03:30:22;;;;;;;11.90;9.70;;;;;;;;;;106992;1255;61327;-79
2023/06/18 03:32:49;;;;;;;14.20;10.60;;;;;;;;;;107058;1255;59555;-80
2023/06/18 03:35:15;;;;;;;13.80;10.20;;;;;;;;;;107011;1255;59206;-79
2023/06/18 03:37:42;;;;;;;13.20;9.30;;;;;;;;;;107017;1255;61264;-81
2023/06/18 03:40:10;;;;;;;13.10;10.70;;;;;;;;;;107022;1253;61239;-81
2023/06/18 03:42:36;;;;;;;16.30;10.70;;;;;;;;;;106986;1252;61282;-79
2023/06/18 03:45:02;;;;;;;18.40;14.30;;;;;;;;;;107039;1255;61190;-81
2023/06/18 03:47:29;;;;;;;20.00;15.60;;;;;;;;;;106961;1252;61573;-81
2023/06/18 03:49:55;;;;;;;18.10;13.00;;;;;;;;;;107109;1251;61194;-82
2023/06/18 03:52:22;;;;;;;13.60;11.90;;;;;;;;;;107166;1251;62314;-79
2023/06/18 03:54:48;;;;;;;16.60;13.60;;;;;;;;;;107030;1250;61339;-81
2023/06/18 03:57:14;;;;;;;16.80;13.70;;;;;;;;;;107073;1251;61394;-79
2023/06/18 03:59:41;;;;;;;16.60;13.90;;;;;;;;;;107111;1251;61422;-81
2023/06/18 04:02:07;;;;;;;31.60;21.60;;;;;;;;;;107091;1251;61330;-79
2023/06/18 04:04:34;;;;;;;26.20;19.50;;;;;;;;;;107067;1250;62412;-79
2023/06/18 04:07:00;;;;;;;24.60;20.10;;;;;;;;;;107102;1251;61327;-81
2023/06/18 04:09:27;;;;;;;22.30;16.50;;;;;;;;;;107090;1251;61235;-81
2023/06/18 04:11:54;;;;;;;18.70;15.40;;;;;;;;;;107082;1251;61250;-79
2023/06/18 04:14:20;;;;;;;16.90;13.80;;;;;;;;;;107046;1250;61256;-81
2023/06/18 04:16:47;;;;;;;17.30;12.50;;;;;;;;;;107078;1251;60832;-79
2023/06/18 04:19:13;;;;;;;16.70;12.40;;;;;;;;;;107091;1251;61258;-81
2023/06/18 04:21:39;;;;;;;16.20;12.30;;;;;;;;;;107070;1253;61789;-79
2023/06/18 04:24:06;;;;;;;19.00;13.20;;;;;;;;;;107042;1252;61334;-79
2023/06/18 04:26:32;;;;;;;16.70;12.30;;;;;;;;;;107053;1253;61363;-79
2023/06/18 04:28:59;;;;;;;14.90;11.60;;;;;;;;;;106999;1255;61299;-81
2023/06/18 04:31:25;;;;;;;14.40;11.40;;;;;;;;;;106983;1253;61327;-79
2023/06/18 04:33:52;;;;;;;16.70;13.10;;;;;;;;;;107034;1253;61164;-81
2023/06/18 04:36:18;;;;;;;15.80;12.20;;;;;;;;;;107005;1251;61136;-81
2023/06/18 04:38:45;;;;;;;16.90;11.40;;;;;;;;;;107075;1253;61227;-82
2023/06/18 04:41:11;;;;;;;13.90;11.00;;;;;;;;;;107034;1252;61251;-81
2023/06/18 04:43:38;;;;;;;14.20;10.20;;;;;;;;;;106767;1252;61337;-79
2023/06/18 04:46:04;;;;;;;14.20;11.10;;;;;;;;;;107031;1253;61232;-79
2023/06/18 04:48:31;;;;;;;16.30;12.80;;;;;;;;;;106997;1251;61162;-81
2023/06/18 04:50:58;;;;;;;11.90;10.50;;;;;;;;;;107031;1251;61227;-79
2023/06/18 04:53:25;;;;;;;14.00;11.10;;;;;;;;;;107001;1250;61239;-81
2023/06/18 04:55:51;;;;;;;16.00;11.80;;;;;;;;;;107069;1250;61292;-79
2023/06/18 04:58:20;;;;;;;15.50;11.10;;;;;;;;;;107070;1251;61204;-81
2023/06/18 05:00:46;;;;;;;;;;;;;;;;;;107011;1251;61986;-79
2023/06/18 05:03:13;;;;;;;16.90;11.50;;;;;;;;;;107102;1251;61206;-81
2023/06/18 05:05:39;;;;;;;12.30;10.40;;;;;;;;;;107088;1251;61220;-79
2023/06/18 05:08:06;;;;;;;13.70;10.50;;;;;;;;;;107061;1251;61346;-80
2023/06/18 05:10:33;;;;;;;12.00;9.20;;;;;;;;;;107110;1250;62464;-79
2023/06/18 05:13:00;;;;;;;11.30;9.60;;;;;;;;;;107110;1251;62329;-79
2023/06/18 05:15:26;;;;;;;11.20;8.50;;;;;;;;;;107075;1251;61243;-79
2023/06/18 05:17:52;;;;;;;12.00;9.60;;;;;;;;;;107177;1254;61260;-82
2023/06/18 05:20:19;;;;;;;11.10;9.90;;;;;;;;;;107177;1251;61355;-81
2023/06/18 05:22:45;;;;;;;11.80;9.10;;;;;;;;;;107035;1252;61349;-82
2023/06/18 05:25:12;;;;;;;12.50;10.50;;;;;;;;;;106454;1253;61344;-81
2023/06/18 05:27:38;;;;;;;15.40;10.90;;;;;;;;;;106451;1253;61305;-80
2023/06/18 05:30:05;;;;;;;14.00;12.50;;;;;;;;;;107001;1255;61357;-82
2023/06/18 05:32:31;;;;;;;16.10;13.00;;;;;;;;;;107070;1255;61332;-80
2023/06/18 05:34:58;;;;;;;19.10;13.10;;;;;;;;;;106464;1255;61343;-82
2023/06/18 05:37:24;;;;;;;14.00;10.30;;;;;;;;;;107046;1255;61322;-79
2023/06/18 05:39:51;;;;;;;11.20;9.40;;;;;;;;;;106453;1251;61254;-78
2023/06/18 05:42:18;;;;;;;10.70;9.10;;;;;;;;;;106474;1253;61296;-78
2023/06/18 05:44:45;;;;;;;9.70;8.10;;;;;;;;;;106417;1251;61189;-80
2023/06/18 05:47:11;;;;;;;11.20;8.50;;;;;;;;;;106467;1255;61274;-77
2023/06/18 05:49:37;;;;;;;15.40;11.00;;;;;;;;;;106640;1254;61267;-82
2023/06/18 05:52:04;;;;;;;11.90;10.20;;;;;;;;;;106513;1256;61227;-81
2023/06/18 05:54:30;;;;;;;11.70;9.80;;;;;;;;;;106508;1254;61461;-78
2023/06/18 05:56:57;;;;;;;10.30;8.50;;;;;;;;;;107114;1251;61365;-81
2023/06/18 05:59:23;;;;;;;11.80;9.00;;;;;;;;;;107220;1254;59667;-81
2023/06/18 06:01:49;;;;;;;12.30;9.00;;;;;;;;;;107137;1254;61249;-79
2023/06/18 06:04:16;;;;;;;9.80;8.80;;;;;;;;;;107142;1251;61313;-79
2023/06/18 06:06:42;;;;;;;11.20;8.50;;;;;;;;;;107076;1251;61266;-81
2023/06/18 06:09:09;;;;;;;13.20;10.40;;;;;;;;;;107183;1251;61710;-81
2023/06/18 06:11:36;;;;;;;11.80;8.40;;;;;;;;;;107129;1250;61244;-81
2023/06/18 06:14:05;;;;;;;10.60;7.50;;;;;;;;;;106552;1251;62701;-79
2023/06/18 06:16:31;;;;;;;10.00;8.00;;;;;;;;;;107211;1250;61244;-81
2023/06/18 06:18:58;;;;;;;11.30;7.90;;;;;;;;;;107154;1250;61244;-80
2023/06/18 06:21:24;;;;;;;10.90;7.40;;;;;;;;;;107100;1250;61215;-81
2023/06/18 06:23:51;;;;;;;8.80;7.50;;;;;;;;;;107035;1252;61297;-81
2023/06/18 06:26:17;;;;;;;9.70;7.40;;;;;;;;;;107026;1255;61687;-79
2023/06/18 06:28:44;;;;;;;9.10;7.30;;;;;;;;;;107060;1253;61273;-79
2023/06/18 06:31:10;;;;;;;8.00;6.40;;;;;;;;;;106996;1253;61176;-79
2023/06/18 06:33:37;;;;;;;9.00;6.60;;;;;;;;;;106995;1253;63347;-81
2023/06/18 06:36:03;;;;;;;8.40;6.60;;;;;;;;;;107114;1253;61216;-78
2023/06/18 06:38:30;;;;;;;8.40;7.10;;;;;;;;;;106948;1253;61213;-79
2023/06/18 06:40:56;;;;;;;7.70;6.30;;;;;;;;;;107081;1255;61576;-79
2023/06/18 06:43:23;;;;;;;8.40;6.10;;;;;;;;;;107061;1252;61340;-78
2023/06/18 06:45:49;;;;;;;10.20;7.30;;;;;;;;;;107041;1255;61827;-79
2023/06/18 06:48:15;;;;;;;7.90;6.80;;;;;;;;;;107071;1251;61119;-79
2023/06/18 06:50:42;;;;;;;8.90;6.50;;;;;;;;;;107075;1251;61252;-81
2023/06/18 06:53:08;;;;;;;7.30;6.10;;;;;;;;;;107099;1251;61709;-82
2023/06/18 06:55:35;;;;;;;7.60;6.40;;;;;;;;;;107117;1251;61342;-81
2023/06/18 06:58:01;;;;;;;8.80;5.80;;;;;;;;;;107133;1251;61342;-81
2023/06/18 07:00:28;;;;;;;9.50;6.40;;;;;;;;;;107111;1251;61240;-81
2023/06/18 07:02:54;;;;;;;7.70;5.90;;;;;;;;;;107028;1254;61180;-79
2023/06/18 07:05:21;;;;;;;10.70;6.00;;;;;;;;;;107119;1250;61347;-79
2023/06/18 07:07:47;;;;;;;8.30;6.20;;;;;;;;;;106926;1251;166126;-79
2023/06/18 07:10:13;;;;;;;8.70;7.00;;;;;;;;;;107135;1254;63452;-82
2023/06/18 07:12:40;;;;;;;9.10;6.50;;;;;;;;;;107222;1251;61250;-79
2023/06/18 07:15:07;;;;;;;7.30;5.80;;;;;;;;;;107208;1251;61361;-79
2023/06/18 07:17:33;;;;;;;21.70;14.00;;;;;;;;;;107137;1254;61275;-82
2023/06/18 07:19:59;;;;;;;8.30;7.40;;;;;;;;;;107103;1254;61198;-81
2023/06/18 07:22:26;;;;;;;8.00;6.70;;;;;;;;;;107032;1253;61330;-81
2023/06/18 07:24:53;;;;;;;6.80;5.30;;;;;;;;;;107072;1252;61315;-82
2023/06/18 07:27:20;;;;;;;7.60;6.00;;;;;;;;;;107019;1253;61308;-79
2023/06/18 07:29:47;;;;;;;5.40;4.80;;;;;;;;;;107559;1255;61165;-82
2023/06/18 07:32:13;;;;;;;6.20;5.20;;;;;;;;;;107124;1253;61251;-81
2023/06/18 07:34:39;;;;;;;7.00;6.10;;;;;;;;;;106459;1251;61433;-78
2023/06/18 07:37:06;;;;;;;5.80;5.10;;;;;;;;;;106444;1252;61331;-81
2023/06/18 07:39:32;;;;;;;9.70;5.40;;;;;;;;;;106474;1253;63320;-79
2023/06/18 07:41:59;;;;;;;7.80;5.20;;;;;;;;;;107034;1253;61230;-79
2023/06/18 07:44:26;;;;;;;5.20;4.70;;;;;;;;;;106940;1257;61363;-81
2023/06/18 07:46:53;;;;;;;8.10;4.90;;;;;;;;;;107093;1253;61251;-82
2023/06/18 07:49:21;;;;;;;6.90;5.70;;;;;;;;;;107195;1255;61277;-79
2023/06/18 07:51:48;;;;;;;6.90;6.20;;;;;;;;;;107347;1255;61582;-82
2023/06/18 07:54:14;;;;;;;8.20;5.50;;;;;;;;;;107153;1251;61240;-79
2023/06/18 07:56:41;;;;;;;7.50;5.80;;;;;;;;;;107183;1251;61100;-79
2023/06/18 07:59:08;;;;;;;6.30;5.70;;;;;;;;;;107094;1254;61262;-82
2023/06/18 08:01:35;;;;;;;7.70;5.90;;;;;;;;;;107088;1251;61118;-79
2023/06/18 08:04:01;;;;;;;7.00;5.80;;;;;;;;;;107108;1255;62844;-78
2023/06/18 08:06:27;;;;;;;7.60;6.20;;;;;;;;;;107163;1250;61293;-79
2023/06/18 08:08:54;;;;;;;7.50;6.20;;;;;;;;;;107144;1251;61198;-79
2023/06/18 08:11:20;;;;;;;8.00;6.70;;;;;;;;;;107150;1254;59456;-81
2023/06/18 08:13:47;;;;;;;9.50;8.00;;;;;;;;;;107064;1256;59398;-79
2023/06/18 08:16:13;;;;;;;10.50;7.00;;;;;;;;;;107141;1251;61262;-81
2023/06/18 08:18:40;;;;;;;8.10;7.10;;;;;;;;;;107228;1251;61158;-81
2023/06/18 08:21:06;;;;;;;8.60;6.00;;;;;;;;;;107044;1255;61240;-80
2023/06/18 08:23:33;;;;;;;6.40;5.40;;;;;;;;;;107168;1253;61105;-82
2023/06/18 08:25:59;;;;;;;6.60;5.50;;;;;;;;;;109492;1251;58956;-82
2023/06/18 08:28:25;;;;;;;5.90;5.30;;;;;;;;;;109503;1251;59183;-82
2023/06/18 08:30:52;;;;;;;5.90;4.50;;;;;;;;;;109479;1251;59041;-79
2023/06/18 08:33:18;;;;;;;7.00;4.50;;;;;;;;;;109350;1251;58985;-82
2023/06/18 08:35:45;;;;;;;5.60;4.50;;;;;;;;;;107009;1255;61288;-82
2023/06/18 08:38:11;;;;;;;5.20;4.40;;;;;;;;;;107121;1255;61203;-79
2023/06/18 08:40:46;;;;;;;7.90;4.50;;;;;;;;;;107038;1253;61213;-79
2023/06/18 08:43:14;;;;;;;5.90;4.60;;;;;;;;;;109471;1252;59314;-82
2023/06/18 08:45:41;;;;;;;6.40;4.80;;;;;;;;;;109477;1253;59760;-80
2023/06/18 08:48:07;;;;;;;5.70;5.10;;;;;;;;;;109485;1251;59072;-80
2023/06/18 08:50:34;;;;;;;5.20;4.60;;;;;;;;;;109611;1251;59122;-80
2023/06/18 08:53:02;;;;;;;6.50;5.50;;;;;;;;;;109529;1251;62803;-82
2023/06/18 08:55:29;;;;;;;6.80;5.00;;;;;;;;;;109570;1251;58962;-80
2023/06/18 08:58:00;;;;;;;8.10;5.30;;;;;;;;;;109619;1251;58910;-82
2023/06/18 09:00:27;;;;;;;5.80;5.20;;;;;;;;;;109648;1251;58939;-82
2023/06/18 09:02:53;;;;;;;5.60;4.90;;;;;;;;;;109685;1251;59082;-80
2023/06/18 09:05:20;;;;;;;7.50;4.30;;;;;;;;;;109657;1250;60794;-79
2023/06/18 09:07:46;;;;;;;4.80;4.30;;;;;;;;;;109634;1251;58948;-80
2023/06/18 09:10:13;;;;;;;6.70;4.70;;;;;;;;;;109569;1251;59672;-80
2023/06/18 09:12:39;;;;;;;5.00;4.10;;;;;;;;;;109643;1251;58870;-80
2023/06/18 09:15:06;;;;;;;5.30;4.80;;;;;;;;;;109652;1251;58903;-80
2023/06/18 09:17:33;;;;;;;5.70;5.10;;;;;;;;;;109585;1250;60508;-80
2023/06/18 09:19:59;;;;;;;6.90;4.30;;;;;;;;;;109643;1250;59368;-80
2023/06/18 09:22:26;;;;;;;5.20;4.70;;;;;;;;;;109473;1252;58896;-83
2023/06/18 09:24:56;;;;;;;6.50;5.00;;;;;;;;;;109514;1252;58921;-80
2023/06/18 09:27:30;;;;;;;6.40;4.80;;;;;;;;;;109505;1253;58954;-80
2023/06/18 09:29:56;;;;;;;4.90;4.30;;;;;;;;;;109491;1252;61895;-79
2023/06/18 09:32:22;;;;;;;7.40;4.90;;;;;;;;;;109492;1255;58903;-82
2023/06/18 09:34:49;;;;;;;7.70;5.50;;;;;;;;;;107190;1253;61352;-82
2023/06/18 09:37:16;;;;;;;11.40;6.00;;;;;;;;;;106977;1252;61347;-81
2023/06/18 09:39:44;;;;;;;7.40;5.50;;;;;;;;;;106969;1253;61249;-81
2023/06/18 09:42:11;;;;;;;5.50;4.70;;;;;;;;;;109421;1253;62972;-82
2023/06/18 09:44:37;;;;;;;7.20;5.40;;;;;;;;;;109419;1252;59498;-82
2023/06/18 09:47:10;;;;;;;6.50;5.30;;;;;;;;;;109456;1253;59812;-80
2023/06/18 09:49:37;;;;;;;5.80;5.20;;;;;;;;;;109623;1251;59064;-80
2023/06/18 09:52:04;;;;;;;7.10;4.00;;;;;;;;;;109641;1251;58939;-80
2023/06/18 09:54:37;;;;;;;5.80;5.20;;;;;;;;;;109573;1251;61914;-82
2023/06/18 09:57:06;;;;;;;6.90;4.90;;;;;;;;;;109678;1251;58954;-80
2023/06/18 09:59:32;;;;;;;5.30;4.10;;;;;;;;;;109671;1251;59491;-83
2023/06/18 10:01:58;;;;;;;6.90;4.80;;;;;;;;;;109640;1250;59112;-80
2023/06/18 10:04:25;;;;;;;4.60;3.80;;;;;;;;;;109661;1251;58861;-82
2023/06/18 10:06:53;;;;;;;5.70;4.50;;;;;;;;;;107220;1255;62233;-80
2023/06/18 10:09:20;;;;;;;4.60;3.50;;;;;;;;;;107154;1251;61135;-80
2023/06/18 10:11:50;;;;;;;4.10;3.60;;;;;;;;;;108508;1251;60116;-83
2023/06/18 10:14:18;;;;;;;4.70;4.00;;;;;;;;;;109667;1251;58832;-80
2023/06/18 10:16:46;;;;;;;3.90;3.50;;;;;;;;;;109552;1251;58904;-83
2023/06/18 10:19:12;;;;;;;;;;;;;;;;;;109696;1254;62873;-83
2023/06/18 10:21:40;;;;;;;7.10;3.90;;;;;;;;;;109608;1253;58932;-83
2023/06/18 10:24:15;;;;;;;5.00;3.90;;;;;;;;;;109472;1253;59638;-80
2023/06/18 10:26:42;;;;;;;4.30;3.70;;;;;;;;;;109502;1253;58900;-84
2023/06/18 10:29:10;;;;;;;4.50;4.00;;;;;;;;;;108260;1253;61365;-80
2023/06/18 10:31:37;;;;;;;4.60;3.60;;;;;;;;;;107040;1253;61613;-82
2023/06/18 10:34:04;;;;;;;4.50;3.70;;;;;;;;;;107028;1253;61329;-82
2023/06/18 10:36:30;;;;;;;5.50;4.10;;;;;;;;;;107040;1255;61149;-81
2023/06/18 10:38:57;;;;;;;3.70;3.20;;;;;;;;;;107051;1255;61247;-82
2023/06/18 10:41:24;;;;;;;4.40;3.20;;;;;;;;;;106939;1253;61227;-82
2023/06/18 10:43:51;;;;;;;4.20;3.40;;;;;;;;;;107059;1254;61397;-82
2023/06/18 10:46:18;;;;;;;3.70;3.20;;;;;;;;;;107065;1253;61140;-80
2023/06/18 10:49:03;;;;;;;5.70;3.60;;;;;;;;;;107009;1251;61148;-82
2023/06/18 10:51:30;;;;;;;5.00;3.50;;;;;;;;;;107136;1251;60227;-79
2023/06/18 10:54:17;;;;;;;4.30;3.20;;;;;;;;;;107094;1251;61199;-82
2023/06/18 10:56:53;;;;;;;4.50;2.90;;;;;;;;;;107173;1255;62441;-80
2023/06/18 10:59:38;;;;;;;5.10;3.30;;;;;;;;;;107184;1251;61237;-79
2023/06/18 11:02:04;;;;;;;4.30;3.60;;;;;;;;;;107127;1252;61005;-81
2023/06/18 11:04:31;;;;;;;4.90;3.50;;;;;;;;;;107081;1253;61244;-80
2023/06/18 11:07:13;;;;;;;5.90;3.80;;;;;;;;;;107157;1254;61221;-80
2023/06/18 11:09:46;;;;;;;4.50;4.00;;;;;;;;;;107163;1251;62054;-81
2023/06/18 11:12:19;;;;;;;6.30;4.00;;;;;;;;;;107198;1254;61323;-79
2023/06/18 11:15:05;;;;;;;4.00;3.60;;;;;;;;;;107137;1251;61199;-79
2023/06/18 11:17:32;;;;;;;4.40;3.60;;;;;;;;;;107048;1251;61333;-81
2023/06/18 11:19:59;;;;;;;4.20;3.70;;;;;;;;;;107176;1251;61215;-81
2023/06/18 11:22:26;;;;;;;4.10;3.50;;;;;;;;;;106990;1254;62716;-79
2023/06/18 11:24:53;;;;;;;3.30;2.90;;;;;;;;;;106940;1257;61235;-80
2023/06/18 11:27:19;;;;;;;5.20;3.20;;;;;;;;;;106949;1257;61279;-79
2023/06/18 11:29:46;;;;;;;5.30;3.10;;;;;;;;;;107085;1253;61333;-82
2023/06/18 11:32:12;;;;;;;4.40;3.70;;;;;;;;;;107033;1253;61257;-80
2023/06/18 11:34:40;;;;;;;3.40;2.70;;;;;;;;;;107092;1256;59314;-83
2023/06/18 11:37:06;;;;;;;4.20;3.10;;;;;;;;;;107066;1253;61266;-80
2023/06/18 11:39:33;;;;;;;3.30;2.80;;;;;;;;;;107097;1255;61260;-82
2023/06/18 11:42:13;;;;;;;6.90;4.70;;;;;;;;;;107074;1253;61183;-80
2023/06/18 11:44:49;;;;;;;3.70;2.90;;;;;;;;;;106980;1253;59168;-80
2023/06/18 11:47:15;;;;;;;6.70;3.00;;;;;;;;;;107032;1253;62626;-80
2023/06/18 11:49:45;;;;;;;4.80;4.10;;;;;;;;;;107190;1255;61354;-83
2023/06/18 11:52:12;;;;;;;4.80;3.10;;;;;;;;;;107120;1251;61167;-80
2023/06/18 11:54:41;;;;;;;3.90;2.70;;;;;;;;;;107079;1252;61326;-83
2023/06/18 11:57:11;;;;;;;3.60;2.50;;;;;;;;;;107201;1251;61859;-82
2023/06/18 11:59:38;;;;;;;3.30;2.50;;;;;;;;;;107156;1257;62447;-82
2023/06/18 12:02:09;;;;;;;4.50;2.80;;;;;;;;;;107149;1251;61277;-82
2023/06/18 12:04:36;;;;;;;3.90;3.20;;;;;;;;;;107246;1251;61228;-83
2023/06/18 12:07:02;;;;;;;4.80;2.70;;;;;;;;;;107231;1253;59921;-80
2023/06/18 12:09:33;;;;;;;3.00;2.40;;;;;;;;;;107245;1251;61144;-80
2023/06/18 12:11:59;;;;;;;3.90;2.80;;;;;;;;;;107200;1251;61912;-83
2023/06/18 12:14:42;;;;;;;2.80;2.40;;;;;;;;;;107063;1252;61049;-83
2023/06/18 12:17:13;;;;;;;6.60;3.10;;;;;;;;;;107116;1256;61295;-83
2023/06/18 12:19:40;;;;;;;5.50;3.10;;;;;;;;;;107177;1253;61167;-83
2023/06/18 12:22:06;;;;;;;3.40;2.90;;;;;;;;;;107148;1256;59977;-83
2023/06/18 12:24:32;;;;;;;3.20;2.70;;;;;;;;;;107081;1253;61144;-83
2023/06/18 12:26:59;;;;;;;2.90;2.40;;;;;;;;;;107050;1253;61163;-82
2023/06/18 12:29:27;;;;;;;5.50;2.90;;;;;;;;;;109493;1252;59125;-81
2023/06/18 12:32:01;;;;;;;4.20;2.90;;;;;;;;;;109456;1253;58956;-84
2023/06/18 12:34:27;;;;;;;5.00;2.70;;;;;;;;;;109464;1252;58878;-81
2023/06/18 12:36:55;;;;;;;6.40;2.90;;;;;;;;;;109501;1253;58826;-81
2023/06/18 12:39:21;;;;;;;2.40;2.20;;;;;;;;;;109488;1253;59320;-83
2023/06/18 12:41:48;;;;;;;4.60;2.70;;;;;;;;;;109142;1253;59292;-81
2023/06/18 12:44:14;;;;;;;2.70;2.40;;;;;;;;;;107080;1255;61126;-81
2023/06/18 12:46:43;;;;;;;2.60;2.40;;;;;;;;;;107084;1253;59241;-83
2023/06/18 12:49:09;;;;;;;3.60;3.10;;;;;;;;;;107117;1253;62580;-83
2023/06/18 12:51:54;;;;;;;3.20;2.90;;;;;;;;;;107108;1251;61081;-83
2023/06/18 12:54:21;;;;;;;4.60;2.40;;;;;;;;;;107083;1255;60862;-83
2023/06/18 12:56:52;;;;;;;4.30;2.80;;;;;;;;;;107114;1256;61202;-83
2023/06/18 12:59:19;;;;;;;3.50;2.90;;;;;;;;;;107073;1251;61676;-81
2023/06/18 13:01:45;;;;;;;5.70;4.50;;;;;;;;;;107141;1255;61849;-80
2023/06/18 13:04:13;;;;;;;3.40;2.90;;;;;;;;;;107138;1256;60152;-83
2023/06/18 13:06:40;;;;;;;3.70;3.20;;;;;;;;;;107143;1255;61288;-83
2023/06/18 13:09:06;;;;;;;3.40;2.90;;;;;;;;;;107176;1251;61300;-83
2023/06/18 13:11:33;;;;;;;3.60;3.30;;;;;;;;;;107148;1253;61231;-80
2023/06/18 13:14:00;;;;;;;4.30;3.40;;;;;;;;;;107046;1256;61122;-82
2023/06/18 13:16:27;;;;;;;3.20;2.90;;;;;;;;;;107199;1256;61217;-81
2023/06/18 13:18:53;;;;;;;4.30;3.40;;;;;;;;;;107103;1252;61291;-81
2023/06/18 13:21:20;;;;;;;4.80;3.20;;;;;;;;;;107045;1256;61301;-83
2023/06/18 13:23:46;;;;;;;4.10;3.50;;;;;;;;;;106908;1254;61331;-82
2023/06/18 13:26:13;;;;;;;5.50;3.90;;;;;;;;;;107083;1256;62268;-81
2023/06/18 13:28:39;;;;;;;5.10;3.60;;;;;;;;;;107019;1252;61284;-82
2023/06/18 13:31:07;;;;;;;5.60;4.00;;;;;;;;;;107019;1256;61228;-80
2023/06/18 13:33:33;;;;;;;6.50;4.00;;;;;;;;;;107079;1254;61263;-84
2023/06/18 13:35:59;;;;;;;4.20;3.50;;;;;;;;;;107009;1255;59191;-83
2023/06/18 13:38:26;;;;;;;3.30;3.00;;;;;;;;;;107059;1255;61273;-82
2023/06/18 13:40:52;;;;;;;4.80;3.30;;;;;;;;;;107109;1255;61228;-80
2023/06/18 13:43:19;;;;;;;3.40;3.10;;;;;;;;;;107039;1254;62317;-83
2023/06/18 13:45:46;;;;;;;11.30;4.10;;;;;;;;;;107020;1254;61333;-81
2023/06/18 13:48:12;;;;;;;4.00;3.50;;;;;;;;;;107153;1257;63289;-82
2023/06/18 13:50:39;;;;;;;3.30;3.00;;;;;;;;;;107212;1251;62677;-80
2023/06/18 13:53:05;;;;;;;4.80;3.30;;;;;;;;;;107170;1251;60660;-81
2023/06/18 13:55:32;;;;;;;5.60;3.40;;;;;;;;;;107128;1256;61196;-83
2023/06/18 13:57:59;;;;;;;4.70;3.40;;;;;;;;;;107382;1255;59770;-82
2023/06/18 14:00:25;;;;;;;4.10;3.20;;;;;;;;;;107232;1251;61250;-84
2023/06/18 14:02:52;;;;;;;8.90;7.30;;;;;;;;;;107145;1255;61311;-83
2023/06/18 14:05:19;;;;;;;5.50;4.50;;;;;;;;;;107168;1251;61234;-83
2023/06/18 14:07:46;;;;;;;5.10;4.30;;;;;;;;;;107104;1251;59724;-82
2023/06/18 14:10:13;;;;;;;13.20;10.80;;;;;;;;;;107080;1256;61248;-84
2023/06/18 14:12:40;;;;;;;8.50;4.70;;;;;;;;;;106935;1255;61228;-83
2023/06/18 14:15:07;;;;;;;6.90;5.50;;;;;;;;;;107062;1255;62422;-81
2023/06/18 14:17:35;;;;;;;4.20;3.80;;;;;;;;;;107080;1256;61468;-83
2023/06/18 14:20:02;;;;;;;6.70;6.10;;;;;;;;;;106948;1254;61217;-81
2023/06/18 14:22:29;;;;;;;4.80;4.30;;;;;;;;;;107036;1254;61277;-82